sensor_id;sensor_type;location;lat;lon;timestamp;temperature;humidity
9975;DHT22;5028;50.974;4.968;2024-02-23T00:00:53;5.60;99.90
9975;DHT22;5028;50.974;4.968;2024-02-23T00:03:22;5.60;99.90
9975;DHT22;5028;50.974;4.968;2024-02-23T00:05:51;5.60;99.90
9975;DHT22;5028;50.974;4.968;2024-02-23T00:08:19;5.50;99.90
9975;DHT22;5028;50.974;4.968;2024-02-23T00:10:47;5.50;99.90
9975;DHT22;5028;50.974;4.968;2024-02-23T00:13:16;5.50;99.90
9975;DHT22;5028;50.974;4.968;2024-02-23T00:15:44;5.50;99.90
9975;DHT22;5028;50.974;4.968;2024-02-23T00:18:12;5.50;99.90
9975;DHT22;5028;50.974;4.968;2024-02-23T00:20:43;5.40;99.90
9975;DHT22;5028;50.974;4.968;2024-02-23T00:23:12;5.40;99.90
9975;DHT22;5028;50.974;4.968;2024-02-23T00:25:41;5.40;99.90
9975;DHT22;5028;50.974;4.968;2024-02-23T00:28:09;5.40;99.90
9975;DHT22;5028;50.974;4.968;2024-02-23T00:30:37;5.30;99.90
9975;DHT22;5028;50.974;4.968;2024-02-23T00:33:06;5.40;99.90
9975;DHT22;5028;50.974;4.968;2024-02-23T00:35:34;5.40;99.90
9975;DHT22;5028;50.974;4.968;2024-02-23T00:38:02;5.40;99.90
9975;DHT22;5028;50.974;4.968;2024-02-23T00:40:32;5.30;99.90
9975;DHT22;5028;50.974;4.968;2024-02-23T00:43:00;5.30;99.90
9975;DHT22;5028;50.974;4.968;2024-02-23T00:45:30;5.30;99.90
9975;DHT22;5028;50.974;4.968;2024-02-23T00:47:58;5.30;99.90
9975;DHT22;5028;50.974;4.968;2024-02-23T00:50:26;5.30;99.90
9975;DHT22;5028;50.974;4.968;2024-02-23T00:52:55;5.30;99.90
9975;DHT22;5028;50.974;4.968;2024-02-23T00:55:23;5.30;99.90
9975;DHT22;5028;50.974;4.968;2024-02-23T00:57:53;5.30;99.90
9975;DHT22;5028;50.974;4.968;2024-02-23T01:00:21;5.30;99.90
9975;DHT22;5028;50.974;4.968;2024-02-23T01:02:50;5.20;99.90
9975;DHT22;5028;50.974;4.968;2024-02-23T01:05:18;5.20;99.90
9975;DHT22;5028;50.974;4.968;2024-02-23T01:07:47;5.20;99.90
9975;DHT22;5028;50.974;4.968;2024-02-23T01:10:15;5.20;99.90
9975;DHT22;5028;50.974;4.968;2024-02-23T01:12:43;5.20;99.90
9975;DHT22;5028;50.974;4.968;2024-02-23T01:15:13;5.20;99.90
9975;DHT22;5028;50.974;4.968;2024-02-23T01:17:41;5.20;99.90
9975;DHT22;5028;50.974;4.968;2024-02-23T01:20:10;5.20;99.90
9975;DHT22;5028;50.974;4.968;2024-02-23T01:22:38;5.20;99.90
9975;DHT22;5028;50.974;4.968;2024-02-23T01:25:07;5.20;99.90
9975;DHT22;5028;50.974;4.968;2024-02-23T01:27:35;5.10;99.90
9975;DHT22;5028;50.974;4.968;2024-02-23T01:30:05;5.10;99.90
9975;DHT22;5028;50.974;4.968;2024-02-23T01:32:35;5.00;99.90
9975;DHT22;5028;50.974;4.968;2024-02-23T01:35:05;5.00;99.90
9975;DHT22;5028;50.974;4.968;2024-02-23T01:37:34;5.00;99.90
9975;DHT22;5028;50.974;4.968;2024-02-23T01:40:03;5.00;99.90
9975;DHT22;5028;50.974;4.968;2024-02-23T01:42:32;5.00;99.90
9975;DHT22;5028;50.974;4.968;2024-02-23T01:45:00;5.00;99.90
9975;DHT22;5028;50.974;4.968;2024-02-23T01:47:29;4.90;99.90
9975;DHT22;5028;50.974;4.968;2024-02-23T01:49:59;4.90;99.90
9975;DHT22;5028;50.974;4.968;2024-02-23T01:52:28;4.90;99.90
9975;DHT22;5028;50.974;4.968;2024-02-23T01:54:57;4.90;99.90
9975;DHT22;5028;50.974;4.968;2024-02-23T01:57:25;4.90;99.90
9975;DHT22;5028;50.974;4.968;2024-02-23T02:00:17;4.90;99.90
9975;DHT22;5028;50.974;4.968;2024-02-23T02:02:48;4.80;99.90
9975;DHT22;5028;50.974;4.968;2024-02-23T02:05:17;4.90;99.90
9975;DHT22;5028;50.974;4.968;2024-02-23T02:07:47;4.90;99.90
9975;DHT22;5028;50.974;4.968;2024-02-23T02:10:17;4.90;99.90
9975;DHT22;5028;50.974;4.968;2024-02-23T02:12:46;4.90;99.90
9975;DHT22;5028;50.974;4.968;2024-02-23T02:15:14;4.90;99.90
9975;DHT22;5028;50.974;4.968;2024-02-23T02:17:43;4.80;99.90
9975;DHT22;5028;50.974;4.968;2024-02-23T02:20:13;4.90;99.90
9975;DHT22;5028;50.974;4.968;2024-02-23T02:22:42;4.90;99.90
9975;DHT22;5028;50.974;4.968;2024-02-23T02:25:14;4.90;99.90
9975;DHT22;5028;50.974;4.968;2024-02-23T02:27:42;4.90;99.90
9975;DHT22;5028;50.974;4.968;2024-02-23T02:30:13;5.00;99.90
9975;DHT22;5028;50.974;4.968;2024-02-23T02:32:41;5.00;99.90
9975;DHT22;5028;50.974;4.968;2024-02-23T02:35:10;5.10;99.90
9975;DHT22;5028;50.974;4.968;2024-02-23T02:37:39;5.10;99.90
9975;DHT22;5028;50.974;4.968;2024-02-23T02:40:09;5.10;99.90
9975;DHT22;5028;50.974;4.968;2024-02-23T02:42:38;5.10;99.90
9975;DHT22;5028;50.974;4.968;2024-02-23T02:45:06;5.10;99.90
9975;DHT22;5028;50.974;4.968;2024-02-23T02:47:35;5.30;99.90
9975;DHT22;5028;50.974;4.968;2024-02-23T02:50:04;5.10;99.90
9975;DHT22;5028;50.974;4.968;2024-02-23T02:52:34;5.20;99.90
9975;DHT22;5028;50.974;4.968;2024-02-23T02:55:02;5.20;99.90
9975;DHT22;5028;50.974;4.968;2024-02-23T02:57:32;5.20;99.90
9975;DHT22;5028;50.974;4.968;2024-02-23T03:00:00;5.20;99.90
9975;DHT22;5028;50.974;4.968;2024-02-23T03:02:31;5.20;99.90
9975;DHT22;5028;50.974;4.968;2024-02-23T03:05:00;5.30;99.90
9975;DHT22;5028;50.974;4.968;2024-02-23T03:07:28;5.30;99.90
9975;DHT22;5028;50.974;4.968;2024-02-23T03:09:56;5.30;99.90
9975;DHT22;5028;50.974;4.968;2024-02-23T03:12:25;5.40;99.90
9975;DHT22;5028;50.974;4.968;2024-02-23T03:14:55;5.30;99.90
9975;DHT22;5028;50.974;4.968;2024-02-23T03:17:23;5.30;99.90
9975;DHT22;5028;50.974;4.968;2024-02-23T03:19:52;5.40;99.90
9975;DHT22;5028;50.974;4.968;2024-02-23T03:22:21;5.40;99.90
9975;DHT22;5028;50.974;4.968;2024-02-23T03:24:49;5.40;99.90
9975;DHT22;5028;50.974;4.968;2024-02-23T03:27:17;5.40;99.90
9975;DHT22;5028;50.974;4.968;2024-02-23T03:29:45;5.40;99.90
9975;DHT22;5028;50.974;4.968;2024-02-23T03:32:15;5.40;99.90
9975;DHT22;5028;50.974;4.968;2024-02-23T03:34:44;5.40;99.90
9975;DHT22;5028;50.974;4.968;2024-02-23T03:37:12;5.40;99.90
9975;DHT22;5028;50.974;4.968;2024-02-23T03:39:40;5.40;99.90
9975;DHT22;5028;50.974;4.968;2024-02-23T03:42:08;5.40;99.90
9975;DHT22;5028;50.974;4.968;2024-02-23T03:44:37;5.40;99.90
9975;DHT22;5028;50.974;4.968;2024-02-23T03:47:05;5.30;99.90
9975;DHT22;5028;50.974;4.968;2024-02-23T03:49:35;5.30;99.90
9975;DHT22;5028;50.974;4.968;2024-02-23T03:52:04;5.30;99.90
9975;DHT22;5028;50.974;4.968;2024-02-23T03:54:32;5.30;99.90
9975;DHT22;5028;50.974;4.968;2024-02-23T03:57:01;5.30;99.90
9975;DHT22;5028;50.974;4.968;2024-02-23T03:59:29;5.20;99.90
9975;DHT22;5028;50.974;4.968;2024-02-23T04:01:58;5.30;99.90
9975;DHT22;5028;50.974;4.968;2024-02-23T04:04:26;5.30;99.90
9975;DHT22;5028;50.974;4.968;2024-02-23T04:06:55;5.30;99.90
9975;DHT22;5028;50.974;4.968;2024-02-23T04:09:24;5.30;99.90
9975;DHT22;5028;50.974;4.968;2024-02-23T04:11:52;5.30;99.90
9975;DHT22;5028;50.974;4.968;2024-02-23T04:14:21;5.30;99.90
9975;DHT22;5028;50.974;4.968;2024-02-23T04:16:49;5.30;99.90
9975;DHT22;5028;50.974;4.968;2024-02-23T04:19:17;5.30;99.90
9975;DHT22;5028;50.974;4.968;2024-02-23T04:21:45;5.30;99.90
9975;DHT22;5028;50.974;4.968;2024-02-23T04:24:15;5.30;99.90
9975;DHT22;5028;50.974;4.968;2024-02-23T04:26:43;5.40;99.90
9975;DHT22;5028;50.974;4.968;2024-02-23T04:29:11;5.40;99.90
9975;DHT22;5028;50.974;4.968;2024-02-23T04:31:39;5.50;99.90
9975;DHT22;5028;50.974;4.968;2024-02-23T04:34:08;5.50;99.90
9975;DHT22;5028;50.974;4.968;2024-02-23T04:36:42;5.50;99.90
9975;DHT22;5028;50.974;4.968;2024-02-23T04:39:10;5.50;99.90
9975;DHT22;5028;50.974;4.968;2024-02-23T04:41:41;5.50;99.90
9975;DHT22;5028;50.974;4.968;2024-02-23T04:44:09;5.60;99.90
9975;DHT22;5028;50.974;4.968;2024-02-23T04:46:38;5.60;99.90
9975;DHT22;5028;50.974;4.968;2024-02-23T04:49:06;5.60;99.90
9975;DHT22;5028;50.974;4.968;2024-02-23T04:51:34;5.60;99.90
9975;DHT22;5028;50.974;4.968;2024-02-23T04:54:03;5.60;99.90
9975;DHT22;5028;50.974;4.968;2024-02-23T04:56:31;5.60;99.90
9975;DHT22;5028;50.974;4.968;2024-02-23T04:59:01;5.60;99.90
9975;DHT22;5028;50.974;4.968;2024-02-23T05:01:35;5.70;99.90
9975;DHT22;5028;50.974;4.968;2024-02-23T05:04:04;5.70;99.90
9975;DHT22;5028;50.974;4.968;2024-02-23T05:06:33;5.60;99.90
9975;DHT22;5028;50.974;4.968;2024-02-23T05:09:02;5.70;99.90
9975;DHT22;5028;50.974;4.968;2024-02-23T05:11:30;5.60;99.90
9975;DHT22;5028;50.974;4.968;2024-02-23T05:14:00;5.60;99.90
9975;DHT22;5028;50.974;4.968;2024-02-23T05:16:29;5.70;99.90
9975;DHT22;5028;50.974;4.968;2024-02-23T05:18:57;5.60;99.90
9975;DHT22;5028;50.974;4.968;2024-02-23T05:21:26;5.70;99.90
9975;DHT22;5028;50.974;4.968;2024-02-23T05:23:54;5.70;99.90
9975;DHT22;5028;50.974;4.968;2024-02-23T05:26:22;5.70;99.90
9975;DHT22;5028;50.974;4.968;2024-02-23T05:28:50;5.70;99.90
9975;DHT22;5028;50.974;4.968;2024-02-23T05:31:20;5.70;99.90
9975;DHT22;5028;50.974;4.968;2024-02-23T05:34:09;5.70;99.90
9975;DHT22;5028;50.974;4.968;2024-02-23T05:36:37;5.70;99.90
9975;DHT22;5028;50.974;4.968;2024-02-23T05:39:05;5.70;99.90
9975;DHT22;5028;50.974;4.968;2024-02-23T05:41:34;5.70;99.90
9975;DHT22;5028;50.974;4.968;2024-02-23T05:44:03;5.70;99.90
9975;DHT22;5028;50.974;4.968;2024-02-23T05:46:34;5.70;99.90
9975;DHT22;5028;50.974;4.968;2024-02-23T05:49:03;5.70;99.90
9975;DHT22;5028;50.974;4.968;2024-02-23T05:51:32;5.70;99.90
9975;DHT22;5028;50.974;4.968;2024-02-23T05:54:00;5.70;99.90
9975;DHT22;5028;50.974;4.968;2024-02-23T05:56:28;5.70;99.90
9975;DHT22;5028;50.974;4.968;2024-02-23T05:58:57;5.70;99.90
9975;DHT22;5028;50.974;4.968;2024-02-23T06:01:25;5.70;99.90
9975;DHT22;5028;50.974;4.968;2024-02-23T06:03:55;5.70;99.90
9975;DHT22;5028;50.974;4.968;2024-02-23T06:06:23;5.70;99.90
9975;DHT22;5028;50.974;4.968;2024-02-23T06:08:51;5.70;99.90
9975;DHT22;5028;50.974;4.968;2024-02-23T06:11:19;5.70;99.90
9975;DHT22;5028;50.974;4.968;2024-02-23T06:13:48;5.70;99.90
9975;DHT22;5028;50.974;4.968;2024-02-23T06:16:16;5.70;99.90
9975;DHT22;5028;50.974;4.968;2024-02-23T06:18:44;5.70;99.90
9975;DHT22;5028;50.974;4.968;2024-02-23T06:21:14;5.70;99.90
9975;DHT22;5028;50.974;4.968;2024-02-23T06:23:43;5.70;99.90
9975;DHT22;5028;50.974;4.968;2024-02-23T06:26:11;5.70;99.90
9975;DHT22;5028;50.974;4.968;2024-02-23T06:28:40;5.70;99.90
9975;DHT22;5028;50.974;4.968;2024-02-23T06:31:09;5.70;99.90
9975;DHT22;5028;50.974;4.968;2024-02-23T06:33:39;5.70;99.90
9975;DHT22;5028;50.974;4.968;2024-02-23T06:36:09;5.70;99.90
9975;DHT22;5028;50.974;4.968;2024-02-23T06:38:39;5.70;99.90
9975;DHT22;5028;50.974;4.968;2024-02-23T06:41:07;5.80;99.90
9975;DHT22;5028;50.974;4.968;2024-02-23T06:43:37;5.70;99.90
9975;DHT22;5028;50.974;4.968;2024-02-23T06:46:06;5.80;99.90
9975;DHT22;5028;50.974;4.968;2024-02-23T06:48:36;5.80;99.90
9975;DHT22;5028;50.974;4.968;2024-02-23T06:51:04;5.80;99.90
9975;DHT22;5028;50.974;4.968;2024-02-23T06:53:36;5.80;99.90
9975;DHT22;5028;50.974;4.968;2024-02-23T06:56:07;5.80;99.90
9975;DHT22;5028;50.974;4.968;2024-02-23T06:58:36;5.80;99.90
9975;DHT22;5028;50.974;4.968;2024-02-23T07:01:04;5.80;99.90
9975;DHT22;5028;50.974;4.968;2024-02-23T07:03:33;5.80;99.90
9975;DHT22;5028;50.974;4.968;2024-02-23T07:06:05;5.80;99.90
9975;DHT22;5028;50.974;4.968;2024-02-23T07:08:33;5.80;99.90
9975;DHT22;5028;50.974;4.968;2024-02-23T07:11:02;5.80;99.90
9975;DHT22;5028;50.974;4.968;2024-02-23T07:13:31;5.90;99.90
9975;DHT22;5028;50.974;4.968;2024-02-23T07:16:00;5.90;99.90
9975;DHT22;5028;50.974;4.968;2024-02-23T07:18:28;5.90;99.90
9975;DHT22;5028;50.974;4.968;2024-02-23T07:20:57;5.90;99.90
9975;DHT22;5028;50.974;4.968;2024-02-23T07:23:25;6.00;99.90
9975;DHT22;5028;50.974;4.968;2024-02-23T07:25:53;6.00;99.90
9975;DHT22;5028;50.974;4.968;2024-02-23T07:28:22;6.00;99.90
9975;DHT22;5028;50.974;4.968;2024-02-23T07:30:51;6.00;99.90
9975;DHT22;5028;50.974;4.968;2024-02-23T07:33:20;6.10;99.90
9975;DHT22;5028;50.974;4.968;2024-02-23T07:35:48;6.10;99.90
9975;DHT22;5028;50.974;4.968;2024-02-23T07:38:16;6.10;99.90
9975;DHT22;5028;50.974;4.968;2024-02-23T07:40:46;6.10;99.90
9975;DHT22;5028;50.974;4.968;2024-02-23T07:43:15;6.20;99.90
9975;DHT22;5028;50.974;4.968;2024-02-23T07:45:43;6.20;99.90
9975;DHT22;5028;50.974;4.968;2024-02-23T07:48:12;6.20;99.90
9975;DHT22;5028;50.974;4.968;2024-02-23T07:50:41;6.20;99.90
9975;DHT22;5028;50.974;4.968;2024-02-23T07:53:09;6.20;99.90
9975;DHT22;5028;50.974;4.968;2024-02-23T07:55:38;6.20;99.90
9975;DHT22;5028;50.974;4.968;2024-02-23T07:58:06;6.20;99.90
9975;DHT22;5028;50.974;4.968;2024-02-23T08:00:34;6.20;99.90
9975;DHT22;5028;50.974;4.968;2024-02-23T08:03:05;6.30;99.90
9975;DHT22;5028;50.974;4.968;2024-02-23T08:05:36;6.30;99.90
9975;DHT22;5028;50.974;4.968;2024-02-23T08:08:05;6.30;99.90
9975;DHT22;5028;50.974;4.968;2024-02-23T08:10:34;6.40;99.90
9975;DHT22;5028;50.974;4.968;2024-02-23T08:13:02;6.40;99.90
9975;DHT22;5028;50.974;4.968;2024-02-23T08:15:31;6.40;99.90
9975;DHT22;5028;50.974;4.968;2024-02-23T08:17:59;6.40;99.90
9975;DHT22;5028;50.974;4.968;2024-02-23T08:20:27;6.40;99.90
9975;DHT22;5028;50.974;4.968;2024-02-23T08:22:57;6.50;99.90
9975;DHT22;5028;50.974;4.968;2024-02-23T08:25:25;6.50;99.90
9975;DHT22;5028;50.974;4.968;2024-02-23T08:27:55;6.50;99.90
9975;DHT22;5028;50.974;4.968;2024-02-23T08:30:23;6.60;99.90
9975;DHT22;5028;50.974;4.968;2024-02-23T08:32:52;6.60;99.90
9975;DHT22;5028;50.974;4.968;2024-02-23T08:35:20;6.50;99.90
9975;DHT22;5028;50.974;4.968;2024-02-23T08:37:49;6.60;99.90
9975;DHT22;5028;50.974;4.968;2024-02-23T08:40:18;6.50;99.90
9975;DHT22;5028;50.974;4.968;2024-02-23T08:42:47;6.50;99.90
9975;DHT22;5028;50.974;4.968;2024-02-23T08:45:17;6.60;99.90
9975;DHT22;5028;50.974;4.968;2024-02-23T08:47:45;6.60;99.90
9975;DHT22;5028;50.974;4.968;2024-02-23T08:50:13;6.40;99.90
9975;DHT22;5028;50.974;4.968;2024-02-23T08:52:42;6.40;99.90
9975;DHT22;5028;50.974;4.968;2024-02-23T08:55:10;6.30;99.90
9975;DHT22;5028;50.974;4.968;2024-02-23T08:57:40;6.30;99.90
9975;DHT22;5028;50.974;4.968;2024-02-23T09:00:10;6.20;99.90
9975;DHT22;5028;50.974;4.968;2024-02-23T09:02:43;6.20;99.90
9975;DHT22;5028;50.974;4.968;2024-02-23T09:05:11;6.20;99.90
9975;DHT22;5028;50.974;4.968;2024-02-23T09:07:40;6.10;99.90
9975;DHT22;5028;50.974;4.968;2024-02-23T09:10:09;6.10;99.90
9975;DHT22;5028;50.974;4.968;2024-02-23T09:12:40;6.10;99.90
9975;DHT22;5028;50.974;4.968;2024-02-23T09:15:08;6.10;99.90
9975;DHT22;5028;50.974;4.968;2024-02-23T09:17:36;6.20;99.90
9975;DHT22;5028;50.974;4.968;2024-02-23T09:20:06;6.20;99.90
9975;DHT22;5028;50.974;4.968;2024-02-23T09:22:35;6.30;99.90
9975;DHT22;5028;50.974;4.968;2024-02-23T09:25:04;6.50;99.90
9975;DHT22;5028;50.974;4.968;2024-02-23T09:27:33;6.60;99.90
9975;DHT22;5028;50.974;4.968;2024-02-23T09:30:05;6.60;99.90
9975;DHT22;5028;50.974;4.968;2024-02-23T09:32:34;6.70;99.90
9975;DHT22;5028;50.974;4.968;2024-02-23T09:35:03;6.70;99.90
9975;DHT22;5028;50.974;4.968;2024-02-23T09:37:31;6.80;99.90
9975;DHT22;5028;50.974;4.968;2024-02-23T09:40:00;6.80;99.90
9975;DHT22;5028;50.974;4.968;2024-02-23T09:42:28;6.80;99.90
9975;DHT22;5028;50.974;4.968;2024-02-23T09:45:00;6.70;99.90
9975;DHT22;5028;50.974;4.968;2024-02-23T09:47:30;6.70;99.90
9975;DHT22;5028;50.974;4.968;2024-02-23T09:50:00;6.70;99.90
9975;DHT22;5028;50.974;4.968;2024-02-23T09:52:32;6.70;99.90
9975;DHT22;5028;50.974;4.968;2024-02-23T09:55:00;6.70;99.90
9975;DHT22;5028;50.974;4.968;2024-02-23T09:57:30;6.70;99.90
9975;DHT22;5028;50.974;4.968;2024-02-23T09:59:59;6.70;99.90
9975;DHT22;5028;50.974;4.968;2024-02-23T10:02:28;6.70;99.90
9975;DHT22;5028;50.974;4.968;2024-02-23T10:05:00;6.80;99.90
9975;DHT22;5028;50.974;4.968;2024-02-23T10:07:29;6.80;99.90
9975;DHT22;5028;50.974;4.968;2024-02-23T10:09:58;6.90;99.90
9975;DHT22;5028;50.974;4.968;2024-02-23T10:12:28;6.90;99.90
9975;DHT22;5028;50.974;4.968;2024-02-23T10:14:56;7.10;99.90
9975;DHT22;5028;50.974;4.968;2024-02-23T10:17:24;7.30;99.90
9975;DHT22;5028;50.974;4.968;2024-02-23T10:19:54;7.40;99.90
9975;DHT22;5028;50.974;4.968;2024-02-23T10:22:24;7.40;99.90
9975;DHT22;5028;50.974;4.968;2024-02-23T10:24:53;7.50;99.90
9975;DHT22;5028;50.974;4.968;2024-02-23T10:27:21;7.60;99.90
9975;DHT22;5028;50.974;4.968;2024-02-23T10:29:50;7.70;99.90
9975;DHT22;5028;50.974;4.968;2024-02-23T10:32:19;7.80;99.90
9975;DHT22;5028;50.974;4.968;2024-02-23T10:34:48;7.90;99.90
9975;DHT22;5028;50.974;4.968;2024-02-23T10:37:19;7.90;99.90
9975;DHT22;5028;50.974;4.968;2024-02-23T10:39:50;8.10;99.90
9975;DHT22;5028;50.974;4.968;2024-02-23T10:42:24;8.20;99.90
9975;DHT22;5028;50.974;4.968;2024-02-23T10:44:55;8.20;99.90
9975;DHT22;5028;50.974;4.968;2024-02-23T10:47:28;8.20;99.90
9975;DHT22;5028;50.974;4.968;2024-02-23T10:50:01;8.30;99.90
9975;DHT22;5028;50.974;4.968;2024-02-23T10:52:31;8.30;99.90
9975;DHT22;5028;50.974;4.968;2024-02-23T10:55:00;8.30;99.90
9975;DHT22;5028;50.974;4.968;2024-02-23T10:57:31;8.40;99.90
9975;DHT22;5028;50.974;4.968;2024-02-23T11:00:00;8.40;99.90
9975;DHT22;5028;50.974;4.968;2024-02-23T11:02:33;8.50;99.90
9975;DHT22;5028;50.974;4.968;2024-02-23T11:05:03;8.40;99.90
9975;DHT22;5028;50.974;4.968;2024-02-23T11:07:34;8.50;99.90
9975;DHT22;5028;50.974;4.968;2024-02-23T11:10:06;8.50;99.90
9975;DHT22;5028;50.974;4.968;2024-02-23T11:12:36;8.50;99.90
9975;DHT22;5028;50.974;4.968;2024-02-23T11:15:04;8.50;99.90
9975;DHT22;5028;50.974;4.968;2024-02-23T11:17:35;8.50;99.90
9975;DHT22;5028;50.974;4.968;2024-02-23T11:20:06;8.70;99.90
9975;DHT22;5028;50.974;4.968;2024-02-23T11:22:37;8.70;99.90
9975;DHT22;5028;50.974;4.968;2024-02-23T11:25:07;8.80;99.90
9975;DHT22;5028;50.974;4.968;2024-02-23T11:27:37;8.80;99.90
9975;DHT22;5028;50.974;4.968;2024-02-23T11:30:08;8.70;99.90
9975;DHT22;5028;50.974;4.968;2024-02-23T11:32:38;8.80;99.90
9975;DHT22;5028;50.974;4.968;2024-02-23T11:35:10;8.70;99.90
9975;DHT22;5028;50.974;4.968;2024-02-23T11:37:47;8.60;99.90
9975;DHT22;5028;50.974;4.968;2024-02-23T11:40:17;8.50;99.90
9975;DHT22;5028;50.974;4.968;2024-02-23T11:42:46;8.40;99.90
9975;DHT22;5028;50.974;4.968;2024-02-23T11:45:15;8.40;99.90
9975;DHT22;5028;50.974;4.968;2024-02-23T11:47:43;8.30;99.90
9975;DHT22;5028;50.974;4.968;2024-02-23T11:50:13;8.40;99.90
9975;DHT22;5028;50.974;4.968;2024-02-23T11:52:42;8.50;99.90
9975;DHT22;5028;50.974;4.968;2024-02-23T11:55:12;8.40;99.90
9975;DHT22;5028;50.974;4.968;2024-02-23T11:57:45;8.30;99.90
9975;DHT22;5028;50.974;4.968;2024-02-23T12:00:15;8.30;99.90
9975;DHT22;5028;50.974;4.968;2024-02-23T12:02:43;8.30;99.90
9975;DHT22;5028;50.974;4.968;2024-02-23T12:05:13;8.40;99.90
9975;DHT22;5028;50.974;4.968;2024-02-23T12:07:44;8.40;99.90
9975;DHT22;5028;50.974;4.968;2024-02-23T12:10:15;8.40;99.90
9975;DHT22;5028;50.974;4.968;2024-02-23T12:12:44;8.40;99.90
9975;DHT22;5028;50.974;4.968;2024-02-23T12:15:12;8.40;99.90
9975;DHT22;5028;50.974;4.968;2024-02-23T12:17:47;8.30;99.90
9975;DHT22;5028;50.974;4.968;2024-02-23T12:20:16;8.20;99.90
9975;DHT22;5028;50.974;4.968;2024-02-23T12:22:45;8.10;99.90
9975;DHT22;5028;50.974;4.968;2024-02-23T12:25:17;8.10;99.90
9975;DHT22;5028;50.974;4.968;2024-02-23T12:27:45;8.20;99.90
9975;DHT22;5028;50.974;4.968;2024-02-23T12:30:14;8.20;99.90
9975;DHT22;5028;50.974;4.968;2024-02-23T12:32:44;8.10;99.90
9975;DHT22;5028;50.974;4.968;2024-02-23T12:35:14;8.10;99.90
9975;DHT22;5028;50.974;4.968;2024-02-23T12:37:43;8.10;99.90
9975;DHT22;5028;50.974;4.968;2024-02-23T12:40:12;8.10;99.90
9975;DHT22;5028;50.974;4.968;2024-02-23T12:42:42;8.10;99.90
9975;DHT22;5028;50.974;4.968;2024-02-23T12:45:11;8.10;99.90
9975;DHT22;5028;50.974;4.968;2024-02-23T12:47:39;8.20;99.90
9975;DHT22;5028;50.974;4.968;2024-02-23T12:50:08;8.30;99.90
9975;DHT22;5028;50.974;4.968;2024-02-23T12:52:37;8.40;99.90
9975;DHT22;5028;50.974;4.968;2024-02-23T12:55:05;8.50;99.90
9975;DHT22;5028;50.974;4.968;2024-02-23T12:57:35;8.40;99.90
9975;DHT22;5028;50.974;4.968;2024-02-23T13:00:05;8.50;99.90
9975;DHT22;5028;50.974;4.968;2024-02-23T13:02:35;8.50;99.90
9975;DHT22;5028;50.974;4.968;2024-02-23T13:05:03;8.60;99.90
9975;DHT22;5028;50.974;4.968;2024-02-23T13:07:32;8.60;99.90
9975;DHT22;5028;50.974;4.968;2024-02-23T13:10:00;8.50;99.90
9975;DHT22;5028;50.974;4.968;2024-02-23T13:12:28;8.50;99.90
9975;DHT22;5028;50.974;4.968;2024-02-23T13:14:59;8.50;99.90
9975;DHT22;5028;50.974;4.968;2024-02-23T13:17:29;8.50;99.90
9975;DHT22;5028;50.974;4.968;2024-02-23T13:19:58;8.50;99.90
9975;DHT22;5028;50.974;4.968;2024-02-23T13:22:37;8.60;99.90
9975;DHT22;5028;50.974;4.968;2024-02-23T13:25:06;8.60;99.90
9975;DHT22;5028;50.974;4.968;2024-02-23T13:27:34;8.70;99.90
9975;DHT22;5028;50.974;4.968;2024-02-23T13:30:03;8.60;99.90
9975;DHT22;5028;50.974;4.968;2024-02-23T13:32:33;8.70;99.90
9975;DHT22;5028;50.974;4.968;2024-02-23T13:35:01;8.70;99.90
9975;DHT22;5028;50.974;4.968;2024-02-23T13:37:31;8.70;99.90
9975;DHT22;5028;50.974;4.968;2024-02-23T13:40:00;8.60;99.90
9975;DHT22;5028;50.974;4.968;2024-02-23T13:42:28;8.60;99.90
9975;DHT22;5028;50.974;4.968;2024-02-23T13:44:56;8.70;99.90
9975;DHT22;5028;50.974;4.968;2024-02-23T13:47:26;8.70;99.90
9975;DHT22;5028;50.974;4.968;2024-02-23T13:49:56;8.70;99.90
9975;DHT22;5028;50.974;4.968;2024-02-23T13:52:25;8.70;99.90
9975;DHT22;5028;50.974;4.968;2024-02-23T13:54:53;8.70;99.90
9975;DHT22;5028;50.974;4.968;2024-02-23T13:57:22;8.70;99.90
9975;DHT22;5028;50.974;4.968;2024-02-23T13:59:50;8.80;99.90
9975;DHT22;5028;50.974;4.968;2024-02-23T14:02:25;8.90;99.90
9975;DHT22;5028;50.974;4.968;2024-02-23T14:04:59;9.00;99.90
9975;DHT22;5028;50.974;4.968;2024-02-23T14:07:29;8.90;99.90
9975;DHT22;5028;50.974;4.968;2024-02-23T14:09:57;9.00;99.90
9975;DHT22;5028;50.974;4.968;2024-02-23T14:12:26;9.00;99.90
9975;DHT22;5028;50.974;4.968;2024-02-23T14:14:54;8.90;99.90
9975;DHT22;5028;50.974;4.968;2024-02-23T14:17:23;8.90;99.90
9975;DHT22;5028;50.974;4.968;2024-02-23T14:19:51;9.00;99.90
9975;DHT22;5028;50.974;4.968;2024-02-23T14:22:24;9.10;99.90
9975;DHT22;5028;50.974;4.968;2024-02-23T14:24:54;9.10;99.90
9975;DHT22;5028;50.974;4.968;2024-02-23T14:27:22;9.00;99.90
9975;DHT22;5028;50.974;4.968;2024-02-23T14:29:53;9.10;99.90
9975;DHT22;5028;50.974;4.968;2024-02-23T14:32:21;9.10;99.90
9975;DHT22;5028;50.974;4.968;2024-02-23T14:34:50;9.10;99.90
9975;DHT22;5028;50.974;4.968;2024-02-23T14:37:18;9.20;99.90
9975;DHT22;5028;50.974;4.968;2024-02-23T14:39:49;9.30;99.90
9975;DHT22;5028;50.974;4.968;2024-02-23T14:42:20;9.30;99.90
9975;DHT22;5028;50.974;4.968;2024-02-23T14:44:48;9.40;99.90
9975;DHT22;5028;50.974;4.968;2024-02-23T14:47:17;9.40;99.90
9975;DHT22;5028;50.974;4.968;2024-02-23T14:49:54;9.30;99.90
9975;DHT22;5028;50.974;4.968;2024-02-23T14:52:23;9.30;99.90
9975;DHT22;5028;50.974;4.968;2024-02-23T14:54:52;9.30;99.90
9975;DHT22;5028;50.974;4.968;2024-02-23T14:57:21;9.20;99.90
9975;DHT22;5028;50.974;4.968;2024-02-23T14:59:49;9.20;99.90
9975;DHT22;5028;50.974;4.968;2024-02-23T15:02:20;9.20;99.90
9975;DHT22;5028;50.974;4.968;2024-02-23T15:04:48;9.10;99.90
9975;DHT22;5028;50.974;4.968;2024-02-23T15:07:17;9.10;99.90
9975;DHT22;5028;50.974;4.968;2024-02-23T15:09:45;9.00;99.90
9975;DHT22;5028;50.974;4.968;2024-02-23T15:12:15;9.10;99.90
9975;DHT22;5028;50.974;4.968;2024-02-23T15:14:43;9.10;99.90
9975;DHT22;5028;50.974;4.968;2024-02-23T15:17:11;9.10;99.90
9975;DHT22;5028;50.974;4.968;2024-02-23T15:19:40;9.20;99.90
9975;DHT22;5028;50.974;4.968;2024-02-23T15:22:08;9.20;99.90
9975;DHT22;5028;50.974;4.968;2024-02-23T15:24:41;9.20;99.90
9975;DHT22;5028;50.974;4.968;2024-02-23T15:27:12;9.20;99.90
9975;DHT22;5028;50.974;4.968;2024-02-23T15:29:42;9.10;99.90
9975;DHT22;5028;50.974;4.968;2024-02-23T15:32:10;9.00;99.90
9975;DHT22;5028;50.974;4.968;2024-02-23T15:34:40;9.00;99.90
9975;DHT22;5028;50.974;4.968;2024-02-23T15:37:08;8.90;99.90
9975;DHT22;5028;50.974;4.968;2024-02-23T15:39:36;8.90;99.90
9975;DHT22;5028;50.974;4.968;2024-02-23T15:42:05;8.90;99.90
9975;DHT22;5028;50.974;4.968;2024-02-23T15:44:35;8.90;99.90
9975;DHT22;5028;50.974;4.968;2024-02-23T15:47:05;8.80;99.90
9975;DHT22;5028;50.974;4.968;2024-02-23T15:49:33;8.80;99.90
9975;DHT22;5028;50.974;4.968;2024-02-23T15:52:21;8.80;99.90
9975;DHT22;5028;50.974;4.968;2024-02-23T15:54:50;8.80;99.90
9975;DHT22;5028;50.974;4.968;2024-02-23T15:57:18;8.80;99.90
9975;DHT22;5028;50.974;4.968;2024-02-23T15:59:47;8.70;99.90
9975;DHT22;5028;50.974;4.968;2024-02-23T16:02:30;8.70;99.90
9975;DHT22;5028;50.974;4.968;2024-02-23T16:04:59;8.40;99.90
9975;DHT22;5028;50.974;4.968;2024-02-23T16:07:27;8.40;99.90
9975;DHT22;5028;50.974;4.968;2024-02-23T16:09:55;8.30;99.90
9975;DHT22;5028;50.974;4.968;2024-02-23T16:12:24;8.20;99.90
9975;DHT22;5028;50.974;4.968;2024-02-23T16:14:52;8.10;99.90
9975;DHT22;5028;50.974;4.968;2024-02-23T16:17:21;8.20;99.90
9975;DHT22;5028;50.974;4.968;2024-02-23T16:19:50;8.20;99.90
9975;DHT22;5028;50.974;4.968;2024-02-23T16:22:18;8.20;99.90
9975;DHT22;5028;50.974;4.968;2024-02-23T16:24:47;8.20;99.90
9975;DHT22;5028;50.974;4.968;2024-02-23T16:27:15;8.10;99.90
9975;DHT22;5028;50.974;4.968;2024-02-23T16:29:43;8.00;99.90